createdAt,value
2019-04-06T00:02:27.899Z,98702.74
2019-04-06T00:04:59.979Z,98688.10
2019-04-06T00:07:31.173Z,98686.02
2019-04-06T00:10:02.783Z,98697.13
2019-04-06T00:12:34.017Z,98692.52
2019-04-06T00:15:07.155Z,98689.72
2019-04-06T00:17:38.381Z,98690.92
2019-04-06T00:20:10.618Z,98703.70
2019-04-06T00:22:41.838Z,98701.39
2019-04-06T00:25:13.085Z,98700.66
2019-04-06T00:27:46.027Z,98699.34
2019-04-06T00:30:17.614Z,98694.27
2019-04-06T00:32:53.807Z,98702.98
2019-04-06T00:35:25.036Z,98696.40
2019-04-06T00:37:56.286Z,98700.05
2019-04-06T00:40:27.505Z,98697.80
2019-04-06T00:42:58.723Z,98700.89
2019-04-06T00:45:29.946Z,98706.02
2019-04-06T00:48:01.653Z,98730.53
2019-04-06T00:50:32.887Z,98740.64
2019-04-06T00:53:04.518Z,98740.53
2019-04-06T00:55:35.769Z,98724.22
2019-04-06T00:58:07.042Z,98692.91
2019-04-06T01:00:38.760Z,98683.86
2019-04-06T01:03:11.104Z,98679.55
2019-04-06T01:05:42.705Z,98676.77
2019-04-06T01:08:13.938Z,98676.48
2019-04-06T01:10:45.168Z,98668.89
2019-04-06T01:13:16.591Z,98674.53
2019-04-06T01:15:47.817Z,98672.59
2019-04-06T01:18:19.100Z,98706.08
2019-04-06T01:20:50.373Z,98705.59
2019-04-06T01:23:21.617Z,98686.94
2019-04-06T01:25:52.841Z,98682.36
2019-04-06T01:28:24.172Z,98674.75
2019-04-06T01:30:55.393Z,98674.06
2019-04-06T01:33:26.612Z,98673.49
2019-04-06T01:35:57.888Z,98663.84
2019-04-06T01:38:30.150Z,98661.66
2019-04-06T01:41:01.971Z,98662.30
2019-04-06T01:43:33.182Z,98653.25
2019-04-06T01:46:04.410Z,98654.16
2019-04-06T01:48:35.622Z,98651.03
2019-04-06T01:51:06.922Z,98657.69
2019-04-06T01:53:38.132Z,98680.39
2019-04-06T01:56:17.945Z,98695.05
2019-04-06T01:58:42.395Z,98680.05
2019-04-06T02:01:41.283Z,98674.53
2019-04-06T02:04:12.637Z,98679.88
2019-04-06T02:06:43.846Z,98696.24
2019-04-06T02:09:15.076Z,98687.77
2019-04-06T02:11:46.366Z,98670.58
2019-04-06T02:14:17.622Z,98661.09
2019-04-06T02:16:48.843Z,98663.00
2019-04-06T02:19:20.049Z,98659.61
2019-04-06T02:21:51.257Z,98655.28
2019-04-06T02:24:22.805Z,98659.43
2019-04-06T02:26:54.013Z,98665.02
2019-04-06T02:29:25.573Z,98661.36
2019-04-06T02:32:21.429Z,98652.67
2019-04-06T02:35:20.828Z,98643.85
2019-04-06T02:38:13.772Z,98637.02
2019-04-06T02:40:49.577Z,98651.14
2019-04-06T02:43:26.560Z,98653.17
2019-04-06T02:45:57.761Z,98639.66
2019-04-06T02:48:29.364Z,98645.08
2019-04-06T02:51:01.110Z,98644.73
2019-04-06T02:53:32.333Z,98634.90
2019-04-06T02:56:03.549Z,98619.11
2019-04-06T02:58:34.750Z,98617.59
2019-04-06T03:01:05.953Z,98612.48
2019-04-06T03:03:37.186Z,98611.20
2019-04-06T03:06:08.416Z,98620.42
2019-04-06T03:08:39.681Z,98620.73
2019-04-06T03:11:11.305Z,98614.03
2019-04-06T03:13:42.555Z,98614.11
2019-04-06T03:16:13.781Z,98606.91
2019-04-06T03:18:45.022Z,98605.09
2019-04-06T03:21:17.253Z,98591.50
2019-04-06T03:23:51.333Z,98578.03
2019-04-06T03:26:22.489Z,98576.78
2019-04-06T03:28:54.286Z,98573.61
2019-04-06T03:31:27.722Z,98575.42
2019-04-06T03:33:58.845Z,98565.66
2019-04-06T03:36:30.305Z,98566.27
2019-04-06T03:39:01.520Z,98565.39
2019-04-06T03:41:34.486Z,98573.83
2019-04-06T03:44:05.780Z,98570.66
2019-04-06T03:46:37.009Z,98562.57
2019-04-06T03:49:08.216Z,98558.27
2019-04-06T03:51:39.571Z,98548.70
2019-04-06T03:54:10.767Z,98522.84
2019-04-06T03:56:42.069Z,98516.50
2019-04-06T03:59:13.376Z,98517.66
2019-04-06T04:01:45.203Z,98527.80
2019-04-06T04:04:16.611Z,98542.38
2019-04-06T04:06:47.876Z,98543.88
2019-04-06T04:09:19.590Z,98534.84
2019-04-06T04:11:50.863Z,98533.06
2019-04-06T04:14:22.042Z,98535.22
2019-04-06T04:16:53.280Z,98539.60
2019-04-06T04:19:24.632Z,98534.19
2019-04-06T04:21:57.100Z,98525.70
2019-04-06T04:24:28.489Z,98533.48
2019-04-06T04:26:59.654Z,98521.87
2019-04-06T04:29:30.894Z,98564.80
2019-04-06T04:32:02.523Z,98667.86
2019-04-06T04:34:33.955Z,98661.80
2019-04-06T04:37:05.218Z,98600.78
2019-04-06T04:39:36.732Z,98564.53
2019-04-06T04:42:08.349Z,98557.77
2019-04-06T04:44:39.655Z,98567.52
2019-04-06T04:47:10.883Z,98564.38
2019-04-06T04:49:42.102Z,98563.62
2019-04-06T04:52:13.432Z,98556.86
2019-04-06T04:54:44.843Z,98559.44
2019-04-06T04:57:16.076Z,98549.40
2019-04-06T04:59:47.327Z,98547.61
2019-04-06T05:02:18.635Z,98528.17
2019-04-06T05:04:49.857Z,98521.92
2019-04-06T05:07:21.063Z,98514.90
2019-04-06T05:09:52.286Z,98516.06
2019-04-06T05:12:23.544Z,98513.03
2019-04-06T05:15:05.025Z,98515.59
2019-04-06T05:17:37.566Z,98513.27
2019-04-06T05:20:09.352Z,98512.46
2019-04-06T05:22:40.569Z,98512.83
2019-04-06T05:25:11.771Z,98509.89
2019-04-06T05:27:51.870Z,98500.11
2019-04-06T05:30:16.229Z,98497.92
2019-04-06T05:32:47.461Z,98495.50
2019-04-06T05:35:19.000Z,98499.48
2019-04-06T05:37:50.318Z,98495.84
2019-04-06T05:40:21.493Z,98498.72
2019-04-06T05:42:52.726Z,98507.70
2019-04-06T05:45:24.040Z,98503.34
2019-04-06T05:47:55.219Z,98508.11
2019-04-06T05:50:26.537Z,98505.34
2019-04-06T05:52:57.860Z,98499.95
2019-04-06T05:55:29.256Z,98494.75
2019-04-06T05:58:04.208Z,98471.84
2019-04-06T06:00:34.341Z,98471.39
2019-04-06T06:03:05.509Z,98475.41
2019-04-06T06:05:40.278Z,98477.70
2019-04-06T06:08:09.605Z,98490.43
2019-04-06T06:10:40.925Z,98476.04
2019-04-06T06:13:12.098Z,98479.29
2019-04-06T06:15:43.356Z,98491.70
2019-04-06T06:18:25.433Z,98497.31
2019-04-06T06:20:48.433Z,98513.44
2019-04-06T06:23:20.119Z,98540.52
2019-04-06T06:25:51.493Z,98512.70
2019-04-06T06:28:22.744Z,98546.70
2019-04-06T06:30:54.148Z,98535.85
2019-04-06T06:33:25.448Z,98549.19
2019-04-06T06:35:56.636Z,98543.02
2019-04-06T06:38:27.810Z,98539.13
2019-04-06T06:40:58.993Z,98535.67
2019-04-06T06:43:30.524Z,98538.66
2019-04-06T06:46:01.732Z,98542.81
2019-04-06T06:48:33.092Z,98541.83
2019-04-06T06:51:04.349Z,98543.03
2019-04-06T06:53:35.581Z,98546.66
2019-04-06T06:56:06.861Z,98555.27
2019-04-06T06:58:38.063Z,98547.51
2019-04-06T07:01:09.449Z,98535.59
2019-04-06T07:03:41.855Z,98537.18
2019-04-06T07:06:13.319Z,98550.41
2019-04-06T07:08:44.575Z,98586.88
2019-04-06T07:11:15.923Z,98575.54
2019-04-06T07:13:47.180Z,98591.14
2019-04-06T07:16:18.440Z,98583.85
2019-04-06T07:18:49.689Z,98600.17
2019-04-06T07:21:20.849Z,98604.68
2019-04-06T07:23:52.019Z,98603.05
2019-04-06T07:26:23.609Z,98596.66
2019-04-06T07:28:54.799Z,98605.21
2019-04-06T07:31:27.496Z,98612.88
2019-04-06T07:33:58.756Z,98611.16
2019-04-06T07:36:30.024Z,98607.67
2019-04-06T07:39:01.257Z,98604.72
2019-04-06T07:41:34.141Z,98617.37
2019-04-06T07:44:06.592Z,98603.40
2019-04-06T07:46:37.771Z,98609.60
2019-04-06T07:49:10.318Z,98607.55
2019-04-06T07:51:41.871Z,98616.06
2019-04-06T07:54:13.178Z,98610.66
2019-04-06T07:56:44.369Z,98622.01
2019-04-06T07:59:15.947Z,98620.73
2019-04-06T08:01:49.059Z,98621.44
2019-04-06T08:04:20.365Z,98615.55
2019-04-06T08:06:51.581Z,98617.56
2019-04-06T08:09:22.798Z,98624.31
2019-04-06T08:11:53.997Z,98641.72
2019-04-06T08:14:25.591Z,98629.61
2019-04-06T08:16:56.846Z,98634.24
2019-04-06T08:19:28.061Z,98634.84
2019-04-06T08:21:59.286Z,98642.23
2019-04-06T08:24:30.504Z,98659.00
2019-04-06T08:27:01.727Z,98656.70
2019-04-06T08:29:32.992Z,98660.66
2019-04-06T08:32:04.294Z,98667.36
2019-04-06T08:34:35.853Z,98667.42
2019-04-06T08:37:07.021Z,98669.92
2019-04-06T08:39:38.272Z,98675.74
2019-04-06T08:42:09.446Z,98673.92
2019-04-06T08:44:40.658Z,98673.41
2019-04-06T08:47:11.873Z,98683.57
2019-04-06T08:49:43.105Z,98674.59
2019-04-06T08:52:14.947Z,98690.27
2019-04-06T08:54:46.668Z,98679.61
2019-04-06T08:57:17.890Z,98678.70
2019-04-06T08:59:50.670Z,98695.95
2019-04-06T09:02:22.068Z,98704.30
2019-04-06T09:04:53.292Z,98727.40
2019-04-06T09:07:24.524Z,98715.52
2019-04-06T09:09:55.712Z,98700.81
2019-04-06T09:12:27.068Z,98705.50
2019-04-06T09:14:58.242Z,98702.81
2019-04-06T09:17:29.461Z,98705.64
2019-04-06T09:20:00.731Z,98702.34
2019-04-06T09:22:31.986Z,98717.02
2019-04-06T09:25:03.373Z,98714.55
2019-04-06T09:27:34.596Z,98734.17
2019-04-06T09:30:06.292Z,98737.17
2019-04-06T09:32:37.836Z,98749.27
2019-04-06T09:35:09.207Z,98756.59
2019-04-06T09:37:40.434Z,98761.73
2019-04-06T09:40:11.684Z,98761.32
2019-04-06T09:42:43.049Z,98759.37
2019-04-06T09:45:33.351Z,98756.94
2019-04-06T09:48:32.199Z,98754.79
2019-04-06T09:51:19.286Z,98749.66
2019-04-06T09:54:07.864Z,98746.01
2019-04-06T09:57:05.827Z,98741.32
2019-04-06T09:59:56.724Z,98744.79
2019-04-06T10:02:54.893Z,98751.13
2019-04-06T10:05:44.694Z,98749.16
2019-04-06T10:08:47.108Z,98753.61
2019-04-06T10:11:43.285Z,98744.64
2019-04-06T10:14:26.323Z,98743.67
2019-04-06T10:17:19.521Z,98752.00
2019-04-06T10:20:24.612Z,98736.47
2019-04-06T10:23:20.795Z,98746.12
2019-04-06T10:26:13.974Z,98749.02
2019-04-06T10:29:03.705Z,98759.69
2019-04-06T10:31:51.962Z,98768.38
2019-04-06T10:34:41.148Z,98756.02
2019-04-06T10:37:29.948Z,98764.94
2019-04-06T10:40:11.082Z,98757.36
2019-04-06T10:43:10.422Z,98775.72
2019-04-06T10:45:51.831Z,98783.11
2019-04-06T10:48:40.929Z,98797.70
2019-04-06T10:51:34.041Z,98800.52
2019-04-06T10:54:33.391Z,98792.14
2019-04-06T10:57:23.520Z,98793.75
2019-04-06T11:00:19.848Z,98802.91
2019-04-06T11:03:05.357Z,98798.40
2019-04-06T11:05:55.540Z,98790.36
2019-04-06T11:08:54.590Z,98786.89
2019-04-06T11:12:02.690Z,98787.95
2019-04-06T11:14:45.493Z,98775.55
2019-04-06T11:17:44.223Z,98772.78
2019-04-06T11:20:33.245Z,98789.19
2019-04-06T11:23:35.559Z,98791.69
2019-04-06T11:26:24.094Z,98791.32
2019-04-06T11:29:16.937Z,98797.00
2019-04-06T11:32:15.675Z,98793.70
2019-04-06T11:35:18.111Z,98792.48
2019-04-06T11:38:06.997Z,98786.81
2019-04-06T11:41:00.022Z,98786.46
2019-04-06T11:43:42.696Z,98785.52
2019-04-06T11:46:28.287Z,98789.01
2019-04-06T11:49:20.102Z,98780.16
2019-04-06T11:52:13.557Z,98796.95
2019-04-06T11:54:54.021Z,98788.18
2019-04-06T11:57:35.164Z,98808.02
2019-04-06T12:00:31.412Z,98807.95
2019-04-06T12:03:24.523Z,98809.06
2019-04-06T12:06:27.373Z,98820.48
2019-04-06T12:09:09.986Z,98814.11
2019-04-06T12:11:48.297Z,98817.75
2019-04-06T12:14:47.363Z,98814.30
2019-04-06T12:17:46.354Z,98809.55
2019-04-06T12:20:39.369Z,98816.67
2019-04-06T12:23:28.442Z,98814.86
2019-04-06T12:26:11.854Z,98823.64
2019-04-06T12:29:09.116Z,98827.87
2019-04-06T12:32:01.892Z,98823.70
2019-04-06T12:34:54.995Z,98834.58
2019-04-06T12:37:45.792Z,98845.78
2019-04-06T12:40:27.111Z,98858.17
2019-04-06T12:43:35.552Z,98878.65
2019-04-06T12:46:23.789Z,98881.06
2019-04-06T12:49:12.335Z,98880.66
2019-04-06T12:52:02.440Z,98884.66
2019-04-06T12:55:04.654Z,98880.94
2019-04-06T12:57:57.898Z,98876.55
2019-04-06T13:00:52.129Z,98881.89
2019-04-06T13:03:39.246Z,98893.54
2019-04-06T13:06:29.318Z,98888.87
2019-04-06T13:09:15.978Z,98906.20
2019-04-06T13:12:12.640Z,98928.23
2019-04-06T13:15:03.075Z,98900.56
2019-04-06T13:17:53.889Z,98905.88
2019-04-06T13:20:42.452Z,98908.97
2019-04-06T13:23:37.382Z,98905.94
2019-04-06T13:26:16.888Z,98901.72
2019-04-06T13:29:03.513Z,98900.72
2019-04-06T13:31:50.901Z,98893.81
2019-04-06T13:34:28.616Z,98894.63
2019-04-06T13:37:24.932Z,98896.58
2019-04-06T13:40:18.083Z,98894.66
2019-04-06T13:43:24.626Z,98909.69
2019-04-06T13:46:08.529Z,98902.77
2019-04-06T13:49:01.733Z,98898.98
2019-04-06T13:51:54.378Z,98888.41
2019-04-06T13:54:56.472Z,98894.25
2019-04-06T13:57:49.339Z,98900.69
2019-04-06T14:00:42.479Z,98895.13
2019-04-06T14:03:25.799Z,98900.89
2019-04-06T14:06:18.786Z,98912.29
2019-04-06T14:09:17.671Z,98909.38
2019-04-06T14:12:17.174Z,98912.05
2019-04-06T14:15:03.950Z,98909.05
2019-04-06T14:17:54.085Z,98914.69
2019-04-06T14:20:37.149Z,98919.16
2019-04-06T14:23:37.242Z,98921.89
2019-04-06T14:26:35.589Z,98916.02
2019-04-06T14:31:56.945Z,98908.89
2019-04-06T14:35:06.033Z,98917.61
2019-04-06T14:37:59.049Z,98913.66
2019-04-06T14:40:37.847Z,98902.25
2019-04-06T14:43:35.566Z,98900.32
2019-04-06T14:46:19.428Z,98895.37
2019-04-06T14:49:29.574Z,98899.50
2019-04-06T14:52:06.733Z,98894.19
2019-04-06T14:54:59.956Z,98895.36
2019-04-06T14:57:50.210Z,98902.45
2019-04-06T15:00:36.288Z,98889.94
2019-04-06T15:03:29.641Z,98889.23
2019-04-06T15:06:17.260Z,98885.48
2019-04-06T15:09:10.999Z,98893.70
2019-04-06T15:12:01.285Z,98908.15
2019-04-06T15:14:50.486Z,98904.30
2019-04-06T15:17:43.586Z,98909.97
2019-04-06T15:20:26.055Z,98906.30
2019-04-06T15:23:22.323Z,98905.45
2019-04-06T15:26:21.286Z,98912.23
2019-04-06T15:29:10.123Z,98921.66
2019-04-06T15:32:03.187Z,98922.27
2019-04-06T15:34:53.281Z,98923.73
2019-04-06T15:37:34.285Z,98937.76
2019-04-06T15:40:17.204Z,98946.33
2019-04-06T15:43:19.790Z,98943.54
2019-04-06T15:46:01.253Z,98956.59
2019-04-06T15:48:57.443Z,98954.16
2019-04-06T15:51:50.519Z,98967.64
2019-04-06T15:54:36.657Z,98967.64
2019-04-06T15:57:22.489Z,98974.27
2019-04-06T16:00:12.584Z,98971.27
2019-04-06T16:02:55.493Z,98961.09
2019-04-06T16:05:42.423Z,98967.19
2019-04-06T16:08:38.836Z,98966.60
2019-04-06T16:11:37.859Z,98958.98
2019-04-06T16:14:19.468Z,98958.39
2019-04-06T16:17:18.471Z,98960.67
2019-04-06T16:20:14.630Z,98965.87
2019-04-06T16:22:59.193Z,98966.95
2019-04-06T16:25:52.243Z,98964.66
2019-04-06T16:28:40.833Z,98967.30
2019-04-06T16:31:26.901Z,98969.98
2019-04-06T16:34:15.749Z,98977.32
2019-04-06T16:37:06.240Z,98972.63
2019-04-06T16:39:56.344Z,98980.80
2019-04-06T16:42:44.974Z,98981.06
2019-04-06T16:45:45.629Z,98984.67
2019-04-06T16:48:35.734Z,98987.68
2019-04-06T16:51:17.063Z,98982.14
2019-04-06T16:54:10.489Z,98980.81
2019-04-06T16:56:50.710Z,98982.14
2019-04-06T16:59:50.052Z,98984.08
2019-04-06T17:02:45.619Z,98990.22
2019-04-06T17:05:36.251Z,98992.27
2019-04-06T17:08:16.578Z,98993.81
2019-04-06T17:11:06.922Z,99000.58
2019-04-06T17:13:56.128Z,98997.53
2019-04-06T17:16:45.145Z,98997.20
2019-04-06T17:19:48.656Z,99008.45
2019-04-06T17:22:47.773Z,99012.69
2019-04-06T17:25:27.783Z,99014.18
2019-04-06T17:28:18.488Z,99011.25
2019-04-06T17:30:59.458Z,99012.03
2019-04-06T17:33:51.027Z,99012.64
2019-04-06T17:36:44.220Z,99010.80
2019-04-06T17:39:49.436Z,99008.19
2019-04-06T17:42:29.616Z,99007.44
2019-04-06T17:45:24.249Z,99000.22
2019-04-06T17:48:23.956Z,99005.92
2019-04-06T17:51:17.180Z,99015.19
2019-04-06T17:54:07.378Z,99015.91
2019-04-06T17:56:54.897Z,99019.92
2019-04-06T17:59:43.569Z,99020.17
2019-04-06T18:02:33.693Z,99024.36
2019-04-06T18:05:33.739Z,99029.31
2019-04-06T18:08:38.274Z,99030.48
2019-04-06T18:11:31.258Z,99034.19
2019-04-06T18:14:02.546Z,99040.22
2019-04-06T18:16:36.447Z,99051.70
2019-04-06T18:19:07.722Z,99053.91
2019-04-06T18:21:39.160Z,99058.98
2019-04-06T18:24:10.505Z,99063.30
2019-04-06T18:26:41.897Z,99069.44
2019-04-06T18:29:13.428Z,99073.26
2019-04-06T18:32:03.629Z,99089.13
2019-04-06T18:34:35.584Z,99091.62
2019-04-06T18:37:25.723Z,99105.42
2019-04-06T18:39:57.930Z,99113.29
2019-04-06T18:42:29.659Z,99122.95
2019-04-06T18:45:02.096Z,99134.45
2019-04-06T18:47:34.730Z,99142.65
2019-04-06T18:50:06.326Z,99141.84
2019-04-06T18:52:37.586Z,99143.58
2019-04-06T18:57:21.234Z,99130.73
2019-04-06T18:59:53.158Z,99115.77
2019-04-06T19:02:25.873Z,99111.02
2019-04-06T19:04:57.770Z,99108.18
2019-04-06T19:07:29.560Z,99105.33
2019-04-06T19:10:04.214Z,99113.91
2019-04-06T19:12:37.012Z,99103.09
2019-04-06T19:15:10.692Z,99096.86
2019-04-06T19:17:42.907Z,99102.67
2019-04-06T19:20:15.948Z,99103.55
2019-04-06T19:22:47.974Z,99107.02
2019-04-06T19:25:20.564Z,99107.22
2019-04-06T19:27:53.482Z,99116.19
2019-04-06T19:30:26.014Z,99107.75
2019-04-06T19:32:57.864Z,99109.75
2019-04-06T19:35:29.701Z,99111.34
2019-04-06T19:38:04.658Z,99111.52
2019-04-06T19:40:37.211Z,99119.99
2019-04-06T19:43:09.315Z,99118.39
2019-04-06T19:45:43.033Z,99124.41
2019-04-06T19:48:15.275Z,99130.72
2019-04-06T19:50:47.542Z,99134.50
2019-04-06T19:53:19.365Z,99139.59
2019-04-06T19:55:51.179Z,99147.58
2019-04-06T19:58:22.974Z,99147.41
2019-04-06T20:00:54.771Z,99149.11
2019-04-06T20:03:34.717Z,99147.12
2019-04-06T20:06:00.670Z,99151.25
2019-04-06T20:08:33.562Z,99157.09
2019-04-06T20:11:05.487Z,99160.30
2019-04-06T20:13:37.747Z,99156.91
2019-04-06T20:16:09.851Z,99163.69
2019-04-06T20:18:41.778Z,99164.13
2019-04-06T20:23:44.686Z,99166.39
2019-04-06T20:26:16.501Z,99166.75
2019-04-06T20:28:48.443Z,99175.73
2019-04-06T20:31:20.685Z,99177.05
2019-04-06T20:33:53.410Z,99177.13
2019-04-06T20:36:26.215Z,99184.55
2019-04-06T20:38:58.200Z,99182.95
2019-04-06T20:41:30.556Z,99184.83
2019-04-06T20:44:03.418Z,99190.39
2019-04-06T20:59:58.292Z,99190.90
2019-04-06T21:02:32.450Z,99200.86
2019-04-06T21:05:04.301Z,99193.42
2019-04-06T21:07:37.043Z,99204.46
2019-04-06T21:10:09.825Z,99202.36
2019-04-06T21:12:42.168Z,99204.82
2019-04-06T21:15:19.006Z,99210.02
2019-04-06T21:17:48.188Z,99210.56
2019-04-06T21:20:20.905Z,99212.75
2019-04-06T21:22:53.087Z,99214.45
2019-04-06T21:25:25.023Z,99214.73
2019-04-06T21:27:56.905Z,99212.46
2019-04-06T21:30:28.912Z,99212.18
2019-04-06T21:33:01.142Z,99214.25
2019-04-06T21:35:34.677Z,99207.87
2019-04-06T21:38:06.763Z,99208.34
2019-04-06T21:40:38.683Z,99206.45
2019-04-06T21:43:10.743Z,99199.56
2019-04-06T21:45:44.500Z,99207.20
2019-04-06T21:48:17.077Z,99206.27
2019-04-06T21:50:49.148Z,99225.77
2019-04-06T21:53:21.996Z,99238.55
2019-04-06T21:56:02.117Z,99242.00
2019-04-06T21:58:28.765Z,99249.80
2019-04-06T22:01:02.896Z,99247.16
2019-04-06T22:03:36.440Z,99241.91
2019-04-06T22:06:09.117Z,99246.92
2019-04-06T22:08:41.803Z,99232.64
2019-04-06T22:11:13.921Z,99228.26
2019-04-06T22:13:47.398Z,99234.18
2019-04-06T22:16:19.675Z,99241.42
2019-04-06T22:18:52.057Z,99232.59
2019-04-06T22:21:23.985Z,99235.86
2019-04-06T22:23:55.981Z,99234.47
2019-04-06T22:26:27.853Z,99238.30
2019-04-06T22:28:59.902Z,99241.44
2019-04-06T22:31:32.338Z,99237.97
2019-04-06T22:34:04.914Z,99240.95
2019-04-06T22:36:37.137Z,99239.43
2019-04-06T22:39:11.126Z,99245.23
2019-04-06T22:41:43.312Z,99251.36
2019-04-06T22:44:15.385Z,99244.67
2019-04-06T22:46:47.569Z,99249.61
2019-04-06T22:49:19.501Z,99246.41
2019-04-06T22:51:51.621Z,99244.63
2019-04-06T22:54:23.968Z,99242.29
2019-04-06T22:56:55.717Z,99250.19
2019-04-06T22:59:27.579Z,99250.02
2019-04-06T23:01:59.784Z,99250.52
2019-04-06T23:04:48.502Z,99256.19
2019-04-06T23:07:18.139Z,99252.31
2019-04-06T23:09:49.826Z,99261.92
2019-04-06T23:12:22.205Z,99256.80
2019-04-06T23:14:54.156Z,99266.52
2019-04-06T23:17:38.553Z,99269.05
2019-04-06T23:20:10.647Z,99273.95
2019-04-06T23:22:42.405Z,99276.07
2019-04-06T23:25:14.914Z,99287.47
2019-04-06T23:27:47.838Z,99288.32
2019-04-06T23:30:19.627Z,99289.15
2019-04-06T23:32:51.407Z,99291.78
2019-04-06T23:35:23.573Z,99285.46
2019-04-06T23:37:56.191Z,99278.28
2019-04-06T23:40:28.314Z,99278.55
2019-04-06T23:43:00.060Z,99279.73
2019-04-06T23:45:34.350Z,99273.70
2019-04-06T23:48:06.367Z,99285.61
2019-04-06T23:50:38.287Z,99275.31
2019-04-06T23:53:10.075Z,99270.70
2019-04-06T23:55:42.195Z,99272.48
2019-04-06T23:58:14.050Z,99275.91
